sensor_id;sensor_type;location;lat;lon;timestamp;P1;durP1;ratioP1;P2;durP2;ratioP2
34765;SDS011;20984;43.508;1.504;2023-04-02T00:00:25;15.98;;;4.60;;
34765;SDS011;20984;43.508;1.504;2023-04-02T00:07:54;7.45;;;3.88;;
34765;SDS011;20984;43.508;1.504;2023-04-02T00:10:46;19.90;;;7.65;;
34765;SDS011;20984;43.508;1.504;2023-04-02T00:15:42;8.25;;;4.78;;
34765;SDS011;20984;43.508;1.504;2023-04-02T00:18:17;8.77;;;4.35;;
34765;SDS011;20984;43.508;1.504;2023-04-02T00:20:46;10.20;;;3.80;;
34765;SDS011;20984;43.508;1.504;2023-04-02T00:23:16;9.38;;;4.68;;
34765;SDS011;20984;43.508;1.504;2023-04-02T00:25:43;13.27;;;3.70;;
34765;SDS011;20984;43.508;1.504;2023-04-02T00:28:11;8.30;;;4.50;;
34765;SDS011;20984;43.508;1.504;2023-04-02T00:30:49;8.77;;;4.40;;
34765;SDS011;20984;43.508;1.504;2023-04-02T00:33:26;7.50;;;4.60;;
34765;SDS011;20984;43.508;1.504;2023-04-02T00:35:54;11.10;;;4.25;;
34765;SDS011;20984;43.508;1.504;2023-04-02T00:38:28;5.65;;;3.13;;
34765;SDS011;20984;43.508;1.504;2023-04-02T00:40:57;14.63;;;5.07;;
34765;SDS011;20984;43.508;1.504;2023-04-02T00:43:26;6.43;;;3.35;;
34765;SDS011;20984;43.508;1.504;2023-04-02T00:45:58;15.68;;;4.30;;
34765;SDS011;20984;43.508;1.504;2023-04-02T00:51:06;5.00;;;3.38;;
34765;SDS011;20984;43.508;1.504;2023-04-02T00:53:39;8.10;;;3.88;;
34765;SDS011;20984;43.508;1.504;2023-04-02T00:56:25;11.10;;;4.10;;
34765;SDS011;20984;43.508;1.504;2023-04-02T00:58:56;7.70;;;3.75;;
34765;SDS011;20984;43.508;1.504;2023-04-02T01:01:27;7.57;;;3.90;;
34765;SDS011;20984;43.508;1.504;2023-04-02T01:03:59;10.93;;;4.10;;
34765;SDS011;20984;43.508;1.504;2023-04-02T01:06:35;6.07;;;3.80;;
34765;SDS011;20984;43.508;1.504;2023-04-02T01:25:38;6.85;;;3.63;;
34765;SDS011;20984;43.508;1.504;2023-04-02T01:30:43;4.57;;;4.10;;
34765;SDS011;20984;43.508;1.504;2023-04-02T01:33:16;14.05;;;4.07;;
34765;SDS011;20984;43.508;1.504;2023-04-02T01:35:43;13.05;;;4.43;;
34765;SDS011;20984;43.508;1.504;2023-04-02T01:38:18;18.50;;;5.32;;
34765;SDS011;20984;43.508;1.504;2023-04-02T01:40:53;11.85;;;4.22;;
34765;SDS011;20984;43.508;1.504;2023-04-02T01:43:36;8.55;;;4.50;;
34765;SDS011;20984;43.508;1.504;2023-04-02T01:46:27;10.75;;;4.03;;
34765;SDS011;20984;43.508;1.504;2023-04-02T01:48:53;9.93;;;3.88;;
34765;SDS011;20984;43.508;1.504;2023-04-02T01:51:31;11.07;;;4.38;;
34765;SDS011;20984;43.508;1.504;2023-04-02T01:53:58;10.82;;;4.75;;
34765;SDS011;20984;43.508;1.504;2023-04-02T01:56:27;11.10;;;4.43;;
34765;SDS011;20984;43.508;1.504;2023-04-02T01:58:55;9.43;;;4.22;;
34765;SDS011;20984;43.508;1.504;2023-04-02T02:01:22;5.57;;;3.75;;
34765;SDS011;20984;43.508;1.504;2023-04-02T02:03:51;6.65;;;3.50;;
34765;SDS011;20984;43.508;1.504;2023-04-02T02:06:17;12.80;;;4.32;;
34765;SDS011;20984;43.508;1.504;2023-04-02T02:08:48;15.05;;;5.95;;
34765;SDS011;20984;43.508;1.504;2023-04-02T02:11:20;9.57;;;3.85;;
34765;SDS011;20984;43.508;1.504;2023-04-02T02:13:49;6.53;;;3.80;;
34765;SDS011;20984;43.508;1.504;2023-04-02T02:16:19;13.48;;;4.00;;
34765;SDS011;20984;43.508;1.504;2023-04-02T02:18:47;10.68;;;4.40;;
34765;SDS011;20984;43.508;1.504;2023-04-02T02:21:49;10.45;;;4.05;;
34765;SDS011;20984;43.508;1.504;2023-04-02T02:24:17;11.15;;;5.10;;
34765;SDS011;20984;43.508;1.504;2023-04-02T02:26:44;10.90;;;4.47;;
34765;SDS011;20984;43.508;1.504;2023-04-02T02:29:13;13.13;;;5.07;;
34765;SDS011;20984;43.508;1.504;2023-04-02T02:31:42;12.23;;;4.05;;
34765;SDS011;20984;43.508;1.504;2023-04-02T02:34:13;7.30;;;3.90;;
34765;SDS011;20984;43.508;1.504;2023-04-02T02:36:46;12.20;;;4.32;;
34765;SDS011;20984;43.508;1.504;2023-04-02T02:42:27;11.88;;;4.20;;
34765;SDS011;20984;43.508;1.504;2023-04-02T02:44:51;11.07;;;5.10;;
34765;SDS011;20984;43.508;1.504;2023-04-02T02:49:58;16.70;;;4.50;;
34765;SDS011;20984;43.508;1.504;2023-04-02T02:52:31;8.43;;;4.28;;
34765;SDS011;20984;43.508;1.504;2023-04-02T02:55:00;18.10;;;5.50;;
34765;SDS011;20984;43.508;1.504;2023-04-02T02:57:28;17.70;;;4.40;;
34765;SDS011;20984;43.508;1.504;2023-04-02T03:00:00;15.70;;;4.90;;
34765;SDS011;20984;43.508;1.504;2023-04-02T03:02:28;11.30;;;4.65;;
34765;SDS011;20984;43.508;1.504;2023-04-02T03:04:54;19.92;;;4.80;;
34765;SDS011;20984;43.508;1.504;2023-04-02T03:07:21;7.95;;;4.40;;
34765;SDS011;20984;43.508;1.504;2023-04-02T03:10:23;10.05;;;4.65;;
34765;SDS011;20984;43.508;1.504;2023-04-02T03:15:34;13.35;;;4.55;;
34765;SDS011;20984;43.508;1.504;2023-04-02T03:18:09;11.77;;;4.88;;
34765;SDS011;20984;43.508;1.504;2023-04-02T03:23:28;19.55;;;5.07;;
34765;SDS011;20984;43.508;1.504;2023-04-02T03:26:18;12.30;;;4.18;;
34765;SDS011;20984;43.508;1.504;2023-04-02T03:29:13;12.85;;;3.97;;
34765;SDS011;20984;43.508;1.504;2023-04-02T03:31:52;14.68;;;4.60;;
34765;SDS011;20984;43.508;1.504;2023-04-02T03:39:45;18.25;;;7.03;;
34765;SDS011;20984;43.508;1.504;2023-04-02T03:42:18;11.00;;;4.35;;
34765;SDS011;20984;43.508;1.504;2023-04-02T03:44:59;16.25;;;5.50;;
34765;SDS011;20984;43.508;1.504;2023-04-02T03:47:38;8.02;;;4.85;;
34765;SDS011;20984;43.508;1.504;2023-04-02T03:53:16;16.70;;;4.88;;
34765;SDS011;20984;43.508;1.504;2023-04-02T03:55:46;10.32;;;4.25;;
34765;SDS011;20984;43.508;1.504;2023-04-02T04:01:16;14.85;;;4.28;;
34765;SDS011;20984;43.508;1.504;2023-04-02T04:04:09;17.48;;;4.85;;
34765;SDS011;20984;43.508;1.504;2023-04-02T04:06:41;14.40;;;4.90;;
34765;SDS011;20984;43.508;1.504;2023-04-02T04:11:47;15.55;;;4.70;;
34765;SDS011;20984;43.508;1.504;2023-04-02T04:16:55;11.52;;;5.65;;
34765;SDS011;20984;43.508;1.504;2023-04-02T04:22:07;11.38;;;4.82;;
34765;SDS011;20984;43.508;1.504;2023-04-02T04:25:04;22.15;;;6.13;;
34765;SDS011;20984;43.508;1.504;2023-04-02T04:27:45;16.10;;;5.82;;
34765;SDS011;20984;43.508;1.504;2023-04-02T04:30:24;12.20;;;4.53;;
34765;SDS011;20984;43.508;1.504;2023-04-02T04:33:14;13.00;;;4.35;;
34765;SDS011;20984;43.508;1.504;2023-04-02T04:35:54;12.20;;;5.05;;
34765;SDS011;20984;43.508;1.504;2023-04-02T04:41:12;21.38;;;5.05;;
34765;SDS011;20984;43.508;1.504;2023-04-02T04:46:48;16.17;;;5.10;;
34765;SDS011;20984;43.508;1.504;2023-04-02T04:54:14;17.10;;;5.45;;
34765;SDS011;20984;43.508;1.504;2023-04-02T04:56:43;16.05;;;6.45;;
34765;SDS011;20984;43.508;1.504;2023-04-02T04:59:14;27.58;;;6.13;;
34765;SDS011;20984;43.508;1.504;2023-04-02T05:02:31;19.13;;;5.95;;
34765;SDS011;20984;43.508;1.504;2023-04-02T05:04:34;11.40;;;5.10;;
34765;SDS011;20984;43.508;1.504;2023-04-02T05:14:37;13.02;;;5.30;;
34765;SDS011;20984;43.508;1.504;2023-04-02T05:17:09;19.27;;;6.70;;
34765;SDS011;20984;43.508;1.504;2023-04-02T05:20:01;13.40;;;5.93;;
34765;SDS011;20984;43.508;1.504;2023-04-02T05:30:43;18.35;;;5.85;;
34765;SDS011;20984;43.508;1.504;2023-04-02T05:33:31;14.50;;;5.13;;
34765;SDS011;20984;43.508;1.504;2023-04-02T05:36:08;23.90;;;5.50;;
34765;SDS011;20984;43.508;1.504;2023-04-02T05:38:37;20.95;;;5.57;;
34765;SDS011;20984;43.508;1.504;2023-04-02T05:46:53;22.65;;;5.95;;
34765;SDS011;20984;43.508;1.504;2023-04-02T05:49:35;23.23;;;7.63;;
34765;SDS011;20984;43.508;1.504;2023-04-02T05:52:11;33.58;;;6.88;;
34765;SDS011;20984;43.508;1.504;2023-04-02T05:54:55;19.20;;;5.35;;
34765;SDS011;20984;43.508;1.504;2023-04-02T05:57:34;20.38;;;5.63;;
34765;SDS011;20984;43.508;1.504;2023-04-02T06:00:13;18.58;;;5.57;;
34765;SDS011;20984;43.508;1.504;2023-04-02T06:02:46;15.15;;;5.43;;
34765;SDS011;20984;43.508;1.504;2023-04-02T06:05:20;23.98;;;6.18;;
34765;SDS011;20984;43.508;1.504;2023-04-02T06:07:51;33.47;;;7.05;;
34765;SDS011;20984;43.508;1.504;2023-04-02T06:10:23;12.73;;;5.45;;
34765;SDS011;20984;43.508;1.504;2023-04-02T06:13:06;25.65;;;5.28;;
34765;SDS011;20984;43.508;1.504;2023-04-02T06:15:33;19.45;;;5.57;;
34765;SDS011;20984;43.508;1.504;2023-04-02T06:20:32;24.10;;;6.75;;
34765;SDS011;20984;43.508;1.504;2023-04-02T06:26:02;14.43;;;4.90;;
34765;SDS011;20984;43.508;1.504;2023-04-02T06:28:39;23.70;;;5.53;;
34765;SDS011;20984;43.508;1.504;2023-04-02T06:31:11;25.88;;;5.78;;
34765;SDS011;20984;43.508;1.504;2023-04-02T06:34:00;23.55;;;6.05;;
34765;SDS011;20984;43.508;1.504;2023-04-02T06:36:28;17.42;;;5.47;;
34765;SDS011;20984;43.508;1.504;2023-04-02T06:38:56;20.58;;;5.10;;
34765;SDS011;20984;43.508;1.504;2023-04-02T06:41:25;17.23;;;5.05;;
34765;SDS011;20984;43.508;1.504;2023-04-02T06:43:53;16.77;;;5.90;;
34765;SDS011;20984;43.508;1.504;2023-04-02T06:49:13;18.50;;;6.60;;
34765;SDS011;20984;43.508;1.504;2023-04-02T06:52:04;26.13;;;6.68;;
34765;SDS011;20984;43.508;1.504;2023-04-02T06:54:37;19.92;;;5.63;;
34765;SDS011;20984;43.508;1.504;2023-04-02T06:57:03;20.80;;;5.95;;
34765;SDS011;20984;43.508;1.504;2023-04-02T06:59:31;33.05;;;6.78;;
34765;SDS011;20984;43.508;1.504;2023-04-02T07:01:57;21.70;;;4.95;;
34765;SDS011;20984;43.508;1.504;2023-04-02T07:04:30;21.13;;;6.25;;
34765;SDS011;20984;43.508;1.504;2023-04-02T07:06:57;17.45;;;4.97;;
34765;SDS011;20984;43.508;1.504;2023-04-02T07:09:22;16.17;;;5.28;;
34765;SDS011;20984;43.508;1.504;2023-04-02T07:11:49;18.30;;;6.68;;
34765;SDS011;20984;43.508;1.504;2023-04-02T07:14:15;27.75;;;6.55;;
34765;SDS011;20984;43.508;1.504;2023-04-02T07:16:41;24.10;;;7.38;;
34765;SDS011;20984;43.508;1.504;2023-04-02T07:19:13;26.92;;;6.72;;
34765;SDS011;20984;43.508;1.504;2023-04-02T07:21:45;17.50;;;4.85;;
34765;SDS011;20984;43.508;1.504;2023-04-02T07:24:11;22.05;;;5.75;;
34765;SDS011;20984;43.508;1.504;2023-04-02T07:26:37;20.13;;;5.60;;
34765;SDS011;20984;43.508;1.504;2023-04-02T07:29:04;19.80;;;5.22;;
34765;SDS011;20984;43.508;1.504;2023-04-02T07:31:36;24.33;;;5.18;;
34765;SDS011;20984;43.508;1.504;2023-04-02T07:34:04;21.60;;;5.57;;
34765;SDS011;20984;43.508;1.504;2023-04-02T07:36:31;22.90;;;5.45;;
34765;SDS011;20984;43.508;1.504;2023-04-02T07:38:57;16.88;;;5.40;;
34765;SDS011;20984;43.508;1.504;2023-04-02T07:41:22;19.77;;;5.10;;
34765;SDS011;20984;43.508;1.504;2023-04-02T07:43:48;15.30;;;4.93;;
34765;SDS011;20984;43.508;1.504;2023-04-02T07:46:14;20.77;;;5.85;;
34765;SDS011;20984;43.508;1.504;2023-04-02T07:48:42;12.32;;;4.35;;
34765;SDS011;20984;43.508;1.504;2023-04-02T07:51:13;12.90;;;4.60;;
34765;SDS011;20984;43.508;1.504;2023-04-02T07:53:43;21.20;;;4.38;;
34765;SDS011;20984;43.508;1.504;2023-04-02T07:56:15;17.05;;;4.38;;
34765;SDS011;20984;43.508;1.504;2023-04-02T07:58:42;15.02;;;5.38;;
34765;SDS011;20984;43.508;1.504;2023-04-02T08:01:15;18.38;;;5.78;;
34765;SDS011;20984;43.508;1.504;2023-04-02T08:03:43;17.08;;;4.15;;
34765;SDS011;20984;43.508;1.504;2023-04-02T08:06:09;9.73;;;4.10;;
34765;SDS011;20984;43.508;1.504;2023-04-02T08:08:36;22.15;;;6.03;;
34765;SDS011;20984;43.508;1.504;2023-04-02T08:11:02;19.08;;;4.43;;
34765;SDS011;20984;43.508;1.504;2023-04-02T08:13:27;16.90;;;6.72;;
34765;SDS011;20984;43.508;1.504;2023-04-02T08:15:53;12.25;;;5.00;;
34765;SDS011;20984;43.508;1.504;2023-04-02T08:18:21;16.58;;;4.60;;
34765;SDS011;20984;43.508;1.504;2023-04-02T08:20:47;10.57;;;3.50;;
34765;SDS011;20984;43.508;1.504;2023-04-02T08:23:13;16.98;;;5.85;;
34765;SDS011;20984;43.508;1.504;2023-04-02T08:25:41;11.90;;;4.43;;
34765;SDS011;20984;43.508;1.504;2023-04-02T08:28:08;14.40;;;4.30;;
34765;SDS011;20984;43.508;1.504;2023-04-02T08:30:33;20.55;;;5.90;;
34765;SDS011;20984;43.508;1.504;2023-04-02T08:32:59;14.50;;;4.70;;
34765;SDS011;20984;43.508;1.504;2023-04-02T08:35:25;18.02;;;5.13;;
34765;SDS011;20984;43.508;1.504;2023-04-02T08:37:50;19.38;;;4.20;;
34765;SDS011;20984;43.508;1.504;2023-04-02T08:40:24;17.83;;;4.75;;
34765;SDS011;20984;43.508;1.504;2023-04-02T08:43:09;18.42;;;4.70;;
34765;SDS011;20984;43.508;1.504;2023-04-02T08:48:28;16.35;;;4.63;;
34765;SDS011;20984;43.508;1.504;2023-04-02T08:50:55;16.83;;;5.25;;
34765;SDS011;20984;43.508;1.504;2023-04-02T08:53:44;13.55;;;4.95;;
34765;SDS011;20984;43.508;1.504;2023-04-02T08:56:10;15.45;;;5.15;;
34765;SDS011;20984;43.508;1.504;2023-04-02T08:59:01;13.15;;;5.63;;
34765;SDS011;20984;43.508;1.504;2023-04-02T09:04:15;14.90;;;3.42;;
34765;SDS011;20984;43.508;1.504;2023-04-02T09:06:47;11.13;;;3.95;;
34765;SDS011;20984;43.508;1.504;2023-04-02T09:09:15;15.82;;;5.68;;
34765;SDS011;20984;43.508;1.504;2023-04-02T09:15:03;10.88;;;4.30;;
34765;SDS011;20984;43.508;1.504;2023-04-02T09:17:19;13.18;;;4.03;;
34765;SDS011;20984;43.508;1.504;2023-04-02T09:24:51;9.82;;;3.70;;
34765;SDS011;20984;43.508;1.504;2023-04-02T09:27:19;13.93;;;4.40;;
34765;SDS011;20984;43.508;1.504;2023-04-02T09:29:48;15.65;;;3.78;;
34765;SDS011;20984;43.508;1.504;2023-04-02T09:35:05;21.40;;;4.85;;
34765;SDS011;20984;43.508;1.504;2023-04-02T09:37:34;13.38;;;4.22;;
34765;SDS011;20984;43.508;1.504;2023-04-02T09:43:10;13.60;;;3.70;;
34765;SDS011;20984;43.508;1.504;2023-04-02T09:45:43;9.07;;;3.80;;
34765;SDS011;20984;43.508;1.504;2023-04-02T09:51:18;7.38;;;3.42;;
34765;SDS011;20984;43.508;1.504;2023-04-02T09:53:51;9.63;;;3.30;;
34765;SDS011;20984;43.508;1.504;2023-04-02T09:56:33;10.60;;;3.72;;
34765;SDS011;20984;43.508;1.504;2023-04-02T10:01:42;7.25;;;3.47;;
34765;SDS011;20984;43.508;1.504;2023-04-02T10:07:02;15.38;;;2.78;;
34765;SDS011;20984;43.508;1.504;2023-04-02T10:09:34;7.82;;;4.03;;
34765;SDS011;20984;43.508;1.504;2023-04-02T10:12:02;10.32;;;4.05;;
34765;SDS011;20984;43.508;1.504;2023-04-02T10:14:35;6.47;;;3.78;;
34765;SDS011;20984;43.508;1.504;2023-04-02T10:17:10;5.88;;;2.83;;
34765;SDS011;20984;43.508;1.504;2023-04-02T10:19:44;4.28;;;2.72;;
34765;SDS011;20984;43.508;1.504;2023-04-02T10:22:16;10.23;;;2.78;;
34765;SDS011;20984;43.508;1.504;2023-04-02T10:24:43;10.13;;;3.47;;
34765;SDS011;20984;43.508;1.504;2023-04-02T10:32:45;7.43;;;3.10;;
34765;SDS011;20984;43.508;1.504;2023-04-02T10:41:13;5.72;;;2.63;;
34765;SDS011;20984;43.508;1.504;2023-04-02T10:52:20;2.83;;;2.13;;
34765;SDS011;20984;43.508;1.504;2023-04-02T10:54:51;2.00;;;1.80;;
34765;SDS011;20984;43.508;1.504;2023-04-02T11:00:24;3.15;;;2.00;;
34765;SDS011;20984;43.508;1.504;2023-04-02T11:03:03;3.67;;;2.00;;
34765;SDS011;20984;43.508;1.504;2023-04-02T11:15:51;4.45;;;1.98;;
34765;SDS011;20984;43.508;1.504;2023-04-02T11:18:27;2.92;;;1.73;;
34765;SDS011;20984;43.508;1.504;2023-04-02T11:21:00;4.25;;;1.92;;
34765;SDS011;20984;43.508;1.504;2023-04-02T11:23:33;1.95;;;1.80;;
34765;SDS011;20984;43.508;1.504;2023-04-02T11:29:13;4.68;;;2.42;;
34765;SDS011;20984;43.508;1.504;2023-04-02T11:31:43;4.25;;;1.98;;
34765;SDS011;20984;43.508;1.504;2023-04-02T11:34:55;3.08;;;2.28;;
34765;SDS011;20984;43.508;1.504;2023-04-02T11:37:07;5.70;;;2.25;;
34765;SDS011;20984;43.508;1.504;2023-04-02T11:40:39;4.93;;;3.03;;
34765;SDS011;20984;43.508;1.504;2023-04-02T11:42:36;3.17;;;1.70;;
34765;SDS011;20984;43.508;1.504;2023-04-02T11:45:52;2.60;;;2.08;;
34765;SDS011;20984;43.508;1.504;2023-04-02T11:52:52;7.78;;;2.58;;
34765;SDS011;20984;43.508;1.504;2023-04-02T11:55:31;3.33;;;2.15;;
34765;SDS011;20984;43.508;1.504;2023-04-02T11:58:04;3.78;;;2.03;;
34765;SDS011;20984;43.508;1.504;2023-04-02T12:11:37;3.05;;;2.60;;
34765;SDS011;20984;43.508;1.504;2023-04-02T12:20:12;3.53;;;2.38;;
34765;SDS011;20984;43.508;1.504;2023-04-02T12:22:50;3.03;;;2.47;;
34765;SDS011;20984;43.508;1.504;2023-04-02T12:30:49;4.03;;;2.42;;
34765;SDS011;20984;43.508;1.504;2023-04-02T12:33:29;2.53;;;2.30;;
34765;SDS011;20984;43.508;1.504;2023-04-02T12:36:02;2.10;;;1.90;;
34765;SDS011;20984;43.508;1.504;2023-04-02T12:38:34;2.20;;;2.00;;
34765;SDS011;20984;43.508;1.504;2023-04-02T12:46:30;2.00;;;1.73;;
34765;SDS011;20984;43.508;1.504;2023-04-02T12:49:05;3.95;;;2.13;;
34765;SDS011;20984;43.508;1.504;2023-04-02T12:51:35;3.88;;;2.10;;
34765;SDS011;20984;43.508;1.504;2023-04-02T12:54:01;3.38;;;2.30;;
34765;SDS011;20984;43.508;1.504;2023-04-02T12:56:27;2.53;;;2.28;;
34765;SDS011;20984;43.508;1.504;2023-04-02T12:58:54;3.78;;;1.92;;
34765;SDS011;20984;43.508;1.504;2023-04-02T13:01:21;3.15;;;2.20;;
34765;SDS011;20984;43.508;1.504;2023-04-02T13:06:24;2.20;;;2.00;;
34765;SDS011;20984;43.508;1.504;2023-04-02T13:08:51;2.95;;;1.85;;
34765;SDS011;20984;43.508;1.504;2023-04-02T13:11:18;2.13;;;1.80;;
34765;SDS011;20984;43.508;1.504;2023-04-02T13:13:46;3.25;;;2.30;;
34765;SDS011;20984;43.508;1.504;2023-04-02T13:18:42;4.68;;;2.08;;
34765;SDS011;20984;43.508;1.504;2023-04-02T13:23:41;4.57;;;2.03;;
34765;SDS011;20984;43.508;1.504;2023-04-02T13:26:17;4.43;;;1.83;;
34765;SDS011;20984;43.508;1.504;2023-04-02T13:29:33;2.17;;;1.77;;
34765;SDS011;20984;43.508;1.504;2023-04-02T13:31:46;2.17;;;1.95;;
34765;SDS011;20984;43.508;1.504;2023-04-02T13:34:11;1.63;;;1.52;;
34765;SDS011;20984;43.508;1.504;2023-04-02T13:36:37;3.55;;;1.60;;
34765;SDS011;20984;43.508;1.504;2023-04-02T13:39:03;2.22;;;1.85;;
34765;SDS011;20984;43.508;1.504;2023-04-02T13:41:30;3.25;;;1.60;;
34765;SDS011;20984;43.508;1.504;2023-04-02T13:44:14;2.10;;;1.90;;
34765;SDS011;20984;43.508;1.504;2023-04-02T13:46:43;2.78;;;1.95;;
34765;SDS011;20984;43.508;1.504;2023-04-02T13:49:09;1.63;;;1.52;;
34765;SDS011;20984;43.508;1.504;2023-04-02T13:51:36;1.95;;;1.80;;
34765;SDS011;20984;43.508;1.504;2023-04-02T13:54:07;1.90;;;1.80;;
34765;SDS011;20984;43.508;1.504;2023-04-02T13:56:37;4.05;;;2.50;;
34765;SDS011;20984;43.508;1.504;2023-04-02T13:59:04;2.65;;;2.00;;
34765;SDS011;20984;43.508;1.504;2023-04-02T14:01:30;1.98;;;1.88;;
34765;SDS011;20984;43.508;1.504;2023-04-02T14:03:56;4.47;;;2.65;;
34765;SDS011;20984;43.508;1.504;2023-04-02T14:06:37;2.10;;;1.90;;
34765;SDS011;20984;43.508;1.504;2023-04-02T14:14:42;4.50;;;3.08;;
34765;SDS011;20984;43.508;1.504;2023-04-02T14:28:46;3.63;;;3.22;;
34765;SDS011;20984;43.508;1.504;2023-04-02T14:44:38;2.85;;;2.58;;
34765;SDS011;20984;43.508;1.504;2023-04-02T14:47:20;2.63;;;2.42;;
34765;SDS011;20984;43.508;1.504;2023-04-02T14:49:51;2.72;;;2.53;;
34765;SDS011;20984;43.508;1.504;2023-04-02T14:52:21;2.63;;;2.42;;
34765;SDS011;20984;43.508;1.504;2023-04-02T14:54:54;2.38;;;2.17;;
34765;SDS011;20984;43.508;1.504;2023-04-02T14:57:29;5.22;;;3.05;;
34765;SDS011;20984;43.508;1.504;2023-04-02T15:08:37;2.90;;;2.47;;
34765;SDS011;20984;43.508;1.504;2023-04-02T15:11:10;4.10;;;2.20;;
34765;SDS011;20984;43.508;1.504;2023-04-02T15:16:39;3.15;;;2.72;;
34765;SDS011;20984;43.508;1.504;2023-04-02T15:19:08;2.67;;;1.95;;
34765;SDS011;20984;43.508;1.504;2023-04-02T15:24:16;4.43;;;2.75;;
34765;SDS011;20984;43.508;1.504;2023-04-02T15:27:09;4.35;;;1.73;;
34765;SDS011;20984;43.508;1.504;2023-04-02T15:32:46;3.03;;;1.92;;
34765;SDS011;20984;43.508;1.504;2023-04-02T15:41:03;3.00;;;2.20;;
34765;SDS011;20984;43.508;1.504;2023-04-02T15:46:17;9.55;;;2.92;;
34765;SDS011;20984;43.508;1.504;2023-04-02T16:08:08;7.60;;;3.88;;
34765;SDS011;20984;43.508;1.504;2023-04-02T16:10:56;7.63;;;3.70;;
34765;SDS011;20984;43.508;1.504;2023-04-02T16:13:27;13.02;;;5.78;;
34765;SDS011;20984;43.508;1.504;2023-04-02T16:21:21;5.63;;;3.13;;
34765;SDS011;20984;43.508;1.504;2023-04-02T16:23:49;6.95;;;3.70;;
34765;SDS011;20984;43.508;1.504;2023-04-02T16:26:57;4.38;;;3.45;;
34765;SDS011;20984;43.508;1.504;2023-04-02T16:35:04;4.53;;;4.03;;
34765;SDS011;20984;43.508;1.504;2023-04-02T16:44:22;6.95;;;4.00;;
34765;SDS011;20984;43.508;1.504;2023-04-02T17:05:28;7.68;;;5.47;;
34765;SDS011;20984;43.508;1.504;2023-04-02T17:16:05;5.55;;;3.80;;
34765;SDS011;20984;43.508;1.504;2023-04-02T17:18:36;4.65;;;3.60;;
34765;SDS011;20984;43.508;1.504;2023-04-02T17:21:05;5.05;;;3.05;;
34765;SDS011;20984;43.508;1.504;2023-04-02T17:23:37;4.10;;;3.13;;
34765;SDS011;20984;43.508;1.504;2023-04-02T17:26:18;7.13;;;3.70;;
34765;SDS011;20984;43.508;1.504;2023-04-02T17:28:46;3.55;;;3.25;;
34765;SDS011;20984;43.508;1.504;2023-04-02T17:31:18;7.85;;;4.72;;
34765;SDS011;20984;43.508;1.504;2023-04-02T17:33:46;5.13;;;3.33;;
34765;SDS011;20984;43.508;1.504;2023-04-02T17:42:25;3.90;;;3.50;;
34765;SDS011;20984;43.508;1.504;2023-04-02T17:45:21;4.53;;;4.05;;
34765;SDS011;20984;43.508;1.504;2023-04-02T17:47:57;4.20;;;3.53;;
34765;SDS011;20984;43.508;1.504;2023-04-02T17:50:32;5.10;;;3.75;;
34765;SDS011;20984;43.508;1.504;2023-04-02T17:56:29;4.80;;;3.67;;
34765;SDS011;20984;43.508;1.504;2023-04-02T18:10:30;6.13;;;4.28;;
34765;SDS011;20984;43.508;1.504;2023-04-02T18:16:35;4.72;;;4.03;;
34765;SDS011;20984;43.508;1.504;2023-04-02T18:19:02;7.10;;;4.13;;
34765;SDS011;20984;43.508;1.504;2023-04-02T18:27:57;10.07;;;4.40;;
34765;SDS011;20984;43.508;1.504;2023-04-02T18:30:49;10.77;;;4.63;;
34765;SDS011;20984;43.508;1.504;2023-04-02T18:43:50;6.18;;;4.60;;
34765;SDS011;20984;43.508;1.504;2023-04-02T18:48:54;5.88;;;4.60;;
34765;SDS011;20984;43.508;1.504;2023-04-02T18:51:25;12.20;;;5.22;;
34765;SDS011;20984;43.508;1.504;2023-04-02T18:56:32;5.30;;;4.30;;
34765;SDS011;20984;43.508;1.504;2023-04-02T18:59:05;6.35;;;4.82;;
34765;SDS011;20984;43.508;1.504;2023-04-02T19:01:37;10.80;;;5.22;;
34765;SDS011;20984;43.508;1.504;2023-04-02T19:04:10;6.38;;;4.88;;
34765;SDS011;20984;43.508;1.504;2023-04-02T19:06:42;6.00;;;4.88;;
34765;SDS011;20984;43.508;1.504;2023-04-02T19:09:12;6.97;;;5.47;;
34765;SDS011;20984;43.508;1.504;2023-04-02T19:11:42;8.20;;;6.30;;
34765;SDS011;20984;43.508;1.504;2023-04-02T19:14:11;7.18;;;5.68;;
34765;SDS011;20984;43.508;1.504;2023-04-02T19:19:21;7.33;;;4.60;;
34765;SDS011;20984;43.508;1.504;2023-04-02T19:24:44;15.52;;;10.40;;
34765;SDS011;20984;43.508;1.504;2023-04-02T19:30:26;10.35;;;5.93;;
34765;SDS011;20984;43.508;1.504;2023-04-02T19:36:13;6.32;;;5.00;;
34765;SDS011;20984;43.508;1.504;2023-04-02T19:44:42;7.57;;;5.07;;
34765;SDS011;20984;43.508;1.504;2023-04-02T19:47:10;9.88;;;5.50;;
34765;SDS011;20984;43.508;1.504;2023-04-02T19:49:38;8.32;;;4.93;;
34765;SDS011;20984;43.508;1.504;2023-04-02T19:52:03;9.00;;;4.97;;
34765;SDS011;20984;43.508;1.504;2023-04-02T19:54:29;13.35;;;4.93;;
34765;SDS011;20984;43.508;1.504;2023-04-02T19:56:55;7.32;;;4.90;;
34765;SDS011;20984;43.508;1.504;2023-04-02T19:59:20;7.45;;;5.07;;
34765;SDS011;20984;43.508;1.504;2023-04-02T20:01:46;7.07;;;4.45;;
34765;SDS011;20984;43.508;1.504;2023-04-02T20:04:12;8.02;;;5.50;;
34765;SDS011;20984;43.508;1.504;2023-04-02T20:06:38;5.97;;;4.80;;
34765;SDS011;20984;43.508;1.504;2023-04-02T20:09:03;10.13;;;5.38;;
34765;SDS011;20984;43.508;1.504;2023-04-02T20:11:29;8.55;;;4.60;;
34765;SDS011;20984;43.508;1.504;2023-04-02T20:13:55;7.57;;;4.95;;
34765;SDS011;20984;43.508;1.504;2023-04-02T20:16:21;7.30;;;4.97;;
34765;SDS011;20984;43.508;1.504;2023-04-02T20:18:47;14.30;;;8.30;;
34765;SDS011;20984;43.508;1.504;2023-04-02T20:21:13;5.47;;;4.57;;
34765;SDS011;20984;43.508;1.504;2023-04-02T20:23:39;7.40;;;4.75;;
34765;SDS011;20984;43.508;1.504;2023-04-02T20:26:05;6.90;;;5.20;;
34765;SDS011;20984;43.508;1.504;2023-04-02T20:28:32;7.30;;;4.40;;
34765;SDS011;20984;43.508;1.504;2023-04-02T20:31:08;6.80;;;4.90;;
34765;SDS011;20984;43.508;1.504;2023-04-02T20:33:38;10.68;;;5.45;;
34765;SDS011;20984;43.508;1.504;2023-04-02T20:36:08;13.27;;;5.43;;
34765;SDS011;20984;43.508;1.504;2023-04-02T20:38:35;6.95;;;5.32;;
34765;SDS011;20984;43.508;1.504;2023-04-02T20:41:02;6.60;;;5.00;;
34765;SDS011;20984;43.508;1.504;2023-04-02T20:43:29;7.88;;;5.75;;
34765;SDS011;20984;43.508;1.504;2023-04-02T20:45:56;7.63;;;5.30;;
34765;SDS011;20984;43.508;1.504;2023-04-02T20:48:23;13.20;;;6.05;;
34765;SDS011;20984;43.508;1.504;2023-04-02T20:50:51;11.00;;;6.05;;
34765;SDS011;20984;43.508;1.504;2023-04-02T20:53:17;11.07;;;5.68;;
34765;SDS011;20984;43.508;1.504;2023-04-02T20:55:43;8.75;;;5.22;;
34765;SDS011;20984;43.508;1.504;2023-04-02T20:58:10;8.18;;;5.60;;
34765;SDS011;20984;43.508;1.504;2023-04-02T21:00:41;10.82;;;5.40;;
34765;SDS011;20984;43.508;1.504;2023-04-02T21:03:07;11.07;;;5.70;;
34765;SDS011;20984;43.508;1.504;2023-04-02T21:05:34;5.63;;;5.03;;
34765;SDS011;20984;43.508;1.504;2023-04-02T21:08:09;8.85;;;4.53;;
34765;SDS011;20984;43.508;1.504;2023-04-02T21:10:36;13.00;;;5.60;;
34765;SDS011;20984;43.508;1.504;2023-04-02T21:13:02;7.57;;;5.40;;
34765;SDS011;20984;43.508;1.504;2023-04-02T21:15:28;9.43;;;4.95;;
34765;SDS011;20984;43.508;1.504;2023-04-02T21:17:53;6.13;;;5.07;;
34765;SDS011;20984;43.508;1.504;2023-04-02T21:20:19;7.70;;;5.25;;
34765;SDS011;20984;43.508;1.504;2023-04-02T21:22:45;6.05;;;4.78;;
34765;SDS011;20984;43.508;1.504;2023-04-02T21:25:10;7.43;;;5.32;;
34765;SDS011;20984;43.508;1.504;2023-04-02T21:27:36;11.57;;;5.07;;
34765;SDS011;20984;43.508;1.504;2023-04-02T21:30:02;15.48;;;5.90;;
34765;SDS011;20984;43.508;1.504;2023-04-02T21:32:28;15.60;;;5.15;;
34765;SDS011;20984;43.508;1.504;2023-04-02T21:34:53;11.45;;;5.32;;
34765;SDS011;20984;43.508;1.504;2023-04-02T21:37:20;10.52;;;5.70;;